KREO/REO METAR and TAF weather

Enter ICAO airport designator
Station Type Date Time Source
KREO METAR 2019/04/19 08:52 UTC NOAA

KREO 190852Z AUTO VRB04KT 08/04 A3013 RMK AO1 SLP186 6//// T00830039 58007 PNO $


Station Type Date Time Source
KREO Decoded METAR 2019/04/19 08:52 UTC NOAA

ROME, OR, United States (KREO) 42-35N 117-52W 1235M
Apr 19, 2019 - 04:52 AM EDT / 2019.04.19 0852 UTC
Wind: Variable at 5 MPH (4 KT):0
Temperature: 46.9 F (8.3 C)
Dew Point: 39.0 F (3.9 C)
Relative Humidity: 73%
Pressure (altimeter): 30.13 in. Hg (1020 hPa)
Pressure tendency: 0.02 inches (0.7 hPa) lower than three hours ago
ob: KREO 190852Z AUTO VRB04KT 08/04 A3013 RMK AO1 SLP186 6//// T00830039 58007 PNO
cycle: 9

Station Type Date Time Source
KREO TAF UTC NOAA

Error!

Example: see airport list